Aviation Digital Data Service (ADDS)

Output produced by TAFs form (0721 UTC 26 March 2017)
found at http://aviationweather.gov/adds/tafs/
 
KABQ 260520Z 2606/2706 28017KT P6SM FEW060 SCT120 
     TEMPO 2606/2608 29018G27KT 
     FM260900 28010KT P6SM SCT110 
     FM261600 30015G25KT P6SM SKC 
     FM270200 33008KT P6SM SKC